sensor_id;sensor_type;location;lat;lon;timestamp;P1;durP1;ratioP1;P2;durP2;ratioP2
65162;SDS011;51751;55.714;37.436;2023-05-10T00:01:35;15.98;;;5.50;;
65162;SDS011;51751;55.714;37.436;2023-05-10T00:04:01;16.98;;;5.72;;
65162;SDS011;51751;55.714;37.436;2023-05-10T00:06:45;23.73;;;6.45;;
65162;SDS011;51751;55.714;37.436;2023-05-10T00:09:11;22.60;;;6.97;;
65162;SDS011;51751;55.714;37.436;2023-05-10T00:11:37;22.30;;;6.88;;
65162;SDS011;51751;55.714;37.436;2023-05-10T00:14:03;20.35;;;6.80;;
65162;SDS011;51751;55.714;37.436;2023-05-10T00:16:29;21.00;;;6.03;;
65162;SDS011;51751;55.714;37.436;2023-05-10T00:18:55;21.60;;;7.00;;
65162;SDS011;51751;55.714;37.436;2023-05-10T00:21:21;26.58;;;6.68;;
65162;SDS011;51751;55.714;37.436;2023-05-10T00:23:47;24.02;;;6.50;;
65162;SDS011;51751;55.714;37.436;2023-05-10T00:26:13;39.80;;;7.18;;
65162;SDS011;51751;55.714;37.436;2023-05-10T00:28:43;28.00;;;7.35;;
65162;SDS011;51751;55.714;37.436;2023-05-10T00:31:09;23.52;;;6.85;;
65162;SDS011;51751;55.714;37.436;2023-05-10T00:33:35;16.02;;;5.47;;
65162;SDS011;51751;55.714;37.436;2023-05-10T00:36:01;16.10;;;5.30;;
65162;SDS011;51751;55.714;37.436;2023-05-10T00:38:28;12.57;;;5.30;;
65162;SDS011;51751;55.714;37.436;2023-05-10T00:40:54;13.52;;;4.88;;
65162;SDS011;51751;55.714;37.436;2023-05-10T00:43:26;27.60;;;7.10;;
65162;SDS011;51751;55.714;37.436;2023-05-10T00:45:52;19.23;;;6.10;;
65162;SDS011;51751;55.714;37.436;2023-05-10T00:48:18;15.88;;;6.78;;
65162;SDS011;51751;55.714;37.436;2023-05-10T00:50:45;19.02;;;6.47;;
65162;SDS011;51751;55.714;37.436;2023-05-10T00:53:11;13.85;;;5.85;;
65162;SDS011;51751;55.714;37.436;2023-05-10T00:55:37;22.80;;;8.23;;
65162;SDS011;51751;55.714;37.436;2023-05-10T00:58:04;16.20;;;6.95;;
65162;SDS011;51751;55.714;37.436;2023-05-10T01:03:19;17.13;;;6.22;;
65162;SDS011;51751;55.714;37.436;2023-05-10T01:05:45;21.20;;;7.43;;
65162;SDS011;51751;55.714;37.436;2023-05-10T01:08:10;18.67;;;7.65;;
65162;SDS011;51751;55.714;37.436;2023-05-10T01:10:36;21.90;;;7.05;;
65162;SDS011;51751;55.714;37.436;2023-05-10T01:13:02;21.90;;;5.85;;
65162;SDS011;51751;55.714;37.436;2023-05-10T01:15:28;10.75;;;5.30;;
65162;SDS011;51751;55.714;37.436;2023-05-10T01:17:55;24.88;;;6.80;;
65162;SDS011;51751;55.714;37.436;2023-05-10T01:20:22;20.40;;;6.85;;
65162;SDS011;51751;55.714;37.436;2023-05-10T01:26:14;25.65;;;6.13;;
65162;SDS011;51751;55.714;37.436;2023-05-10T01:34:34;16.50;;;5.13;;
65162;SDS011;51751;55.714;37.436;2023-05-10T01:36:57;13.13;;;4.95;;
65162;SDS011;51751;55.714;37.436;2023-05-10T01:39:29;12.38;;;4.38;;
65162;SDS011;51751;55.714;37.436;2023-05-10T01:42:04;14.07;;;4.38;;
65162;SDS011;51751;55.714;37.436;2023-05-10T01:44:41;13.57;;;4.97;;
65162;SDS011;51751;55.714;37.436;2023-05-10T01:47:14;10.80;;;4.72;;
65162;SDS011;51751;55.714;37.436;2023-05-10T01:49:50;14.40;;;4.63;;
65162;SDS011;51751;55.714;37.436;2023-05-10T01:52:41;9.63;;;4.60;;
65162;SDS011;51751;55.714;37.436;2023-05-10T01:55:10;17.27;;;6.03;;
65162;SDS011;51751;55.714;37.436;2023-05-10T01:57:39;20.02;;;7.60;;
65162;SDS011;51751;55.714;37.436;2023-05-10T02:00:06;18.50;;;6.50;;
65162;SDS011;51751;55.714;37.436;2023-05-10T02:02:45;16.63;;;6.72;;
65162;SDS011;51751;55.714;37.436;2023-05-10T02:05:12;18.42;;;6.05;;
65162;SDS011;51751;55.714;37.436;2023-05-10T02:07:39;22.50;;;5.75;;
65162;SDS011;51751;55.714;37.436;2023-05-10T02:10:09;28.00;;;6.57;;
65162;SDS011;51751;55.714;37.436;2023-05-10T02:12:37;11.38;;;5.35;;
65162;SDS011;51751;55.714;37.436;2023-05-10T02:15:07;13.40;;;4.65;;
65162;SDS011;51751;55.714;37.436;2023-05-10T02:17:34;12.18;;;5.03;;
65162;SDS011;51751;55.714;37.436;2023-05-10T02:20:01;9.68;;;4.35;;
65162;SDS011;51751;55.714;37.436;2023-05-10T02:22:29;14.50;;;4.82;;
65162;SDS011;51751;55.714;37.436;2023-05-10T02:24:56;14.50;;;5.00;;
65162;SDS011;51751;55.714;37.436;2023-05-10T02:27:23;10.10;;;4.40;;
65162;SDS011;51751;55.714;37.436;2023-05-10T02:29:50;15.27;;;5.40;;
65162;SDS011;51751;55.714;37.436;2023-05-10T02:32:17;15.55;;;5.13;;
65162;SDS011;51751;55.714;37.436;2023-05-10T02:34:44;10.32;;;4.38;;
65162;SDS011;51751;55.714;37.436;2023-05-10T02:37:14;12.25;;;5.00;;
65162;SDS011;51751;55.714;37.436;2023-05-10T02:39:41;11.77;;;4.72;;
65162;SDS011;51751;55.714;37.436;2023-05-10T02:42:14;14.27;;;4.47;;
65162;SDS011;51751;55.714;37.436;2023-05-10T02:44:42;12.15;;;4.63;;
65162;SDS011;51751;55.714;37.436;2023-05-10T02:47:08;13.65;;;5.00;;
65162;SDS011;51751;55.714;37.436;2023-05-10T02:49:34;14.55;;;5.18;;
65162;SDS011;51751;55.714;37.436;2023-05-10T02:52:01;9.70;;;4.22;;
65162;SDS011;51751;55.714;37.436;2023-05-10T02:54:33;8.68;;;4.25;;
65162;SDS011;51751;55.714;37.436;2023-05-10T02:57:13;13.02;;;4.43;;
65162;SDS011;51751;55.714;37.436;2023-05-10T02:59:41;11.25;;;4.55;;
65162;SDS011;51751;55.714;37.436;2023-05-10T03:02:12;8.48;;;3.95;;
65162;SDS011;51751;55.714;37.436;2023-05-10T03:04:38;12.40;;;4.40;;
65162;SDS011;51751;55.714;37.436;2023-05-10T03:07:04;16.40;;;4.47;;
65162;SDS011;51751;55.714;37.436;2023-05-10T03:09:30;15.00;;;3.92;;
65162;SDS011;51751;55.714;37.436;2023-05-10T03:17:23;12.98;;;3.95;;
65162;SDS011;51751;55.714;37.436;2023-05-10T03:19:57;7.63;;;3.58;;
65162;SDS011;51751;55.714;37.436;2023-05-10T03:22:26;10.95;;;3.80;;
65162;SDS011;51751;55.714;37.436;2023-05-10T03:24:55;8.48;;;3.47;;
65162;SDS011;51751;55.714;37.436;2023-05-10T03:27:25;10.70;;;3.40;;
65162;SDS011;51751;55.714;37.436;2023-05-10T03:29:52;10.43;;;4.50;;
65162;SDS011;51751;55.714;37.436;2023-05-10T03:32:19;25.15;;;4.57;;
65162;SDS011;51751;55.714;37.436;2023-05-10T03:34:45;21.83;;;4.85;;
65162;SDS011;51751;55.714;37.436;2023-05-10T03:37:11;38.28;;;5.70;;
65162;SDS011;51751;55.714;37.436;2023-05-10T03:39:36;53.67;;;6.55;;
65162;SDS011;51751;55.714;37.436;2023-05-10T03:42:05;66.40;;;8.20;;
65162;SDS011;51751;55.714;37.436;2023-05-10T03:44:31;65.03;;;7.18;;
65162;SDS011;51751;55.714;37.436;2023-05-10T03:46:58;42.65;;;5.68;;
65162;SDS011;51751;55.714;37.436;2023-05-10T03:49:43;15.30;;;4.22;;
65162;SDS011;51751;55.714;37.436;2023-05-10T03:52:11;13.30;;;4.75;;
65162;SDS011;51751;55.714;37.436;2023-05-10T03:54:37;12.02;;;3.85;;
65162;SDS011;51751;55.714;37.436;2023-05-10T03:57:04;13.15;;;4.13;;
65162;SDS011;51751;55.714;37.436;2023-05-10T03:59:31;25.13;;;4.72;;
65162;SDS011;51751;55.714;37.436;2023-05-10T04:02:16;44.17;;;7.75;;
65162;SDS011;51751;55.714;37.436;2023-05-10T04:04:42;9.80;;;3.75;;
65162;SDS011;51751;55.714;37.436;2023-05-10T04:07:08;18.88;;;3.53;;
65162;SDS011;51751;55.714;37.436;2023-05-10T04:09:35;21.73;;;4.93;;
65162;SDS011;51751;55.714;37.436;2023-05-10T04:12:01;13.73;;;3.88;;
65162;SDS011;51751;55.714;37.436;2023-05-10T04:14:28;6.50;;;3.35;;
65162;SDS011;51751;55.714;37.436;2023-05-10T04:16:54;14.55;;;3.97;;
65162;SDS011;51751;55.714;37.436;2023-05-10T04:19:20;12.15;;;4.00;;
65162;SDS011;51751;55.714;37.436;2023-05-10T04:21:46;12.73;;;3.85;;
65162;SDS011;51751;55.714;37.436;2023-05-10T04:24:12;17.75;;;3.83;;
65162;SDS011;51751;55.714;37.436;2023-05-10T04:26:38;15.10;;;3.85;;
65162;SDS011;51751;55.714;37.436;2023-05-10T04:29:04;8.60;;;3.60;;
65162;SDS011;51751;55.714;37.436;2023-05-10T04:31:29;21.30;;;3.55;;
65162;SDS011;51751;55.714;37.436;2023-05-10T04:34:14;13.88;;;4.07;;
65162;SDS011;51751;55.714;37.436;2023-05-10T04:36:40;23.33;;;4.43;;
65162;SDS011;51751;55.714;37.436;2023-05-10T04:39:05;17.05;;;3.47;;
65162;SDS011;51751;55.714;37.436;2023-05-10T04:41:50;12.52;;;3.22;;
65162;SDS011;51751;55.714;37.436;2023-05-10T04:44:16;17.60;;;4.13;;
65162;SDS011;51751;55.714;37.436;2023-05-10T04:46:42;14.18;;;3.30;;
65162;SDS011;51751;55.714;37.436;2023-05-10T04:49:26;15.40;;;3.47;;
65162;SDS011;51751;55.714;37.436;2023-05-10T04:51:52;11.32;;;4.28;;
65162;SDS011;51751;55.714;37.436;2023-05-10T04:54:18;18.08;;;3.50;;
65162;SDS011;51751;55.714;37.436;2023-05-10T04:56:44;9.77;;;3.20;;
65162;SDS011;51751;55.714;37.436;2023-05-10T04:59:09;10.10;;;3.28;;
65162;SDS011;51751;55.714;37.436;2023-05-10T05:01:35;12.10;;;3.03;;
65162;SDS011;51751;55.714;37.436;2023-05-10T05:04:02;6.43;;;2.88;;
65162;SDS011;51751;55.714;37.436;2023-05-10T05:06:46;10.65;;;3.45;;
65162;SDS011;51751;55.714;37.436;2023-05-10T05:09:12;6.25;;;2.90;;
65162;SDS011;51751;55.714;37.436;2023-05-10T05:11:41;8.52;;;2.85;;
65162;SDS011;51751;55.714;37.436;2023-05-10T05:14:07;6.60;;;2.75;;
65162;SDS011;51751;55.714;37.436;2023-05-10T05:16:33;7.50;;;2.40;;
65162;SDS011;51751;55.714;37.436;2023-05-10T05:18:59;7.10;;;2.72;;
65162;SDS011;51751;55.714;37.436;2023-05-10T05:21:25;5.90;;;2.38;;
65162;SDS011;51751;55.714;37.436;2023-05-10T05:23:52;5.43;;;2.63;;
65162;SDS011;51751;55.714;37.436;2023-05-10T05:26:19;3.78;;;2.25;;
65162;SDS011;51751;55.714;37.436;2023-05-10T05:28:44;5.38;;;2.22;;
65162;SDS011;51751;55.714;37.436;2023-05-10T05:31:10;3.42;;;2.40;;
65162;SDS011;51751;55.714;37.436;2023-05-10T05:33:36;3.92;;;2.30;;
65162;SDS011;51751;55.714;37.436;2023-05-10T05:36:03;6.22;;;2.35;;
65162;SDS011;51751;55.714;37.436;2023-05-10T05:38:30;7.00;;;2.63;;
65162;SDS011;51751;55.714;37.436;2023-05-10T05:40:56;2.58;;;1.90;;
65162;SDS011;51751;55.714;37.436;2023-05-10T05:43:22;3.83;;;2.10;;
65162;SDS011;51751;55.714;37.436;2023-05-10T05:45:48;7.00;;;2.30;;
65162;SDS011;51751;55.714;37.436;2023-05-10T05:48:14;5.25;;;2.33;;
65162;SDS011;51751;55.714;37.436;2023-05-10T05:50:40;9.38;;;2.17;;
65162;SDS011;51751;55.714;37.436;2023-05-10T05:53:24;3.28;;;2.10;;
65162;SDS011;51751;55.714;37.436;2023-05-10T05:55:51;5.20;;;2.05;;
65162;SDS011;51751;55.714;37.436;2023-05-10T05:58:21;5.63;;;2.30;;
65162;SDS011;51751;55.714;37.436;2023-05-10T06:00:47;4.25;;;1.83;;
65162;SDS011;51751;55.714;37.436;2023-05-10T06:03:13;4.10;;;2.10;;
65162;SDS011;51751;55.714;37.436;2023-05-10T06:05:39;3.90;;;2.75;;
65162;SDS011;51751;55.714;37.436;2023-05-10T06:08:06;5.00;;;1.90;;
65162;SDS011;51751;55.714;37.436;2023-05-10T06:10:32;6.50;;;2.35;;
65162;SDS011;51751;55.714;37.436;2023-05-10T06:12:58;5.18;;;2.67;;
65162;SDS011;51751;55.714;37.436;2023-05-10T06:15:23;3.15;;;2.13;;
65162;SDS011;51751;55.714;37.436;2023-05-10T06:17:49;7.93;;;2.20;;
65162;SDS011;51751;55.714;37.436;2023-05-10T06:20:16;10.77;;;2.22;;
65162;SDS011;51751;55.714;37.436;2023-05-10T06:22:42;8.65;;;2.30;;
65162;SDS011;51751;55.714;37.436;2023-05-10T06:25:08;4.05;;;2.30;;
65162;SDS011;51751;55.714;37.436;2023-05-10T06:27:35;5.07;;;2.30;;
65162;SDS011;51751;55.714;37.436;2023-05-10T06:30:01;6.80;;;2.50;;
65162;SDS011;51751;55.714;37.436;2023-05-10T06:32:31;6.47;;;2.65;;
65162;SDS011;51751;55.714;37.436;2023-05-10T06:34:57;4.35;;;2.20;;
65162;SDS011;51751;55.714;37.436;2023-05-10T06:37:22;4.13;;;2.08;;
65162;SDS011;51751;55.714;37.436;2023-05-10T06:39:48;3.97;;;2.20;;
65162;SDS011;51751;55.714;37.436;2023-05-10T06:42:14;6.40;;;2.28;;
65162;SDS011;51751;55.714;37.436;2023-05-10T06:44:44;5.47;;;2.50;;
65162;SDS011;51751;55.714;37.436;2023-05-10T06:47:10;6.97;;;2.40;;
65162;SDS011;51751;55.714;37.436;2023-05-10T06:49:36;4.97;;;2.03;;
65162;SDS011;51751;55.714;37.436;2023-05-10T06:52:02;14.30;;;2.78;;
65162;SDS011;51751;55.714;37.436;2023-05-10T06:54:31;3.47;;;2.15;;
65162;SDS011;51751;55.714;37.436;2023-05-10T06:56:56;4.75;;;2.10;;
65162;SDS011;51751;55.714;37.436;2023-05-10T06:59:23;3.38;;;1.80;;
65162;SDS011;51751;55.714;37.436;2023-05-10T07:01:49;4.88;;;1.60;;
65162;SDS011;51751;55.714;37.436;2023-05-10T07:04:15;2.83;;;1.70;;
65162;SDS011;51751;55.714;37.436;2023-05-10T07:06:43;6.28;;;1.90;;
65162;SDS011;51751;55.714;37.436;2023-05-10T07:09:11;2.38;;;1.40;;
65162;SDS011;51751;55.714;37.436;2023-05-10T07:11:37;4.25;;;1.92;;
65162;SDS011;51751;55.714;37.436;2023-05-10T07:14:04;4.32;;;2.08;;
65162;SDS011;51751;55.714;37.436;2023-05-10T07:16:33;6.25;;;1.80;;
65162;SDS011;51751;55.714;37.436;2023-05-10T07:18:59;3.88;;;1.80;;
65162;SDS011;51751;55.714;37.436;2023-05-10T07:21:24;2.67;;;1.40;;
65162;SDS011;51751;55.714;37.436;2023-05-10T07:23:54;2.47;;;1.52;;
65162;SDS011;51751;55.714;37.436;2023-05-10T07:26:21;4.95;;;1.42;;
65162;SDS011;51751;55.714;37.436;2023-05-10T07:28:47;4.63;;;1.73;;
65162;SDS011;51751;55.714;37.436;2023-05-10T07:31:15;2.50;;;1.80;;
65162;SDS011;51751;55.714;37.436;2023-05-10T07:33:41;4.82;;;1.83;;
65162;SDS011;51751;55.714;37.436;2023-05-10T07:36:07;10.32;;;2.00;;
65162;SDS011;51751;55.714;37.436;2023-05-10T07:38:33;4.15;;;1.88;;
65162;SDS011;51751;55.714;37.436;2023-05-10T07:41:17;2.80;;;1.77;;
65162;SDS011;51751;55.714;37.436;2023-05-10T07:43:47;5.47;;;1.90;;
65162;SDS011;51751;55.714;37.436;2023-05-10T07:46:13;7.70;;;2.17;;
65162;SDS011;51751;55.714;37.436;2023-05-10T07:48:39;4.50;;;1.70;;
65162;SDS011;51751;55.714;37.436;2023-05-10T07:51:05;4.80;;;1.63;;
65162;SDS011;51751;55.714;37.436;2023-05-10T07:53:32;4.85;;;1.60;;
65162;SDS011;51751;55.714;37.436;2023-05-10T07:55:58;3.08;;;1.60;;
65162;SDS011;51751;55.714;37.436;2023-05-10T07:58:24;2.58;;;1.75;;
65162;SDS011;51751;55.714;37.436;2023-05-10T08:00:50;3.80;;;1.83;;
65162;SDS011;51751;55.714;37.436;2023-05-10T08:03:19;3.03;;;1.80;;
65162;SDS011;51751;55.714;37.436;2023-05-10T08:05:45;5.78;;;1.60;;
65162;SDS011;51751;55.714;37.436;2023-05-10T08:08:11;4.18;;;1.50;;
65162;SDS011;51751;55.714;37.436;2023-05-10T08:10:37;3.00;;;1.65;;
65162;SDS011;51751;55.714;37.436;2023-05-10T08:13:03;2.53;;;1.58;;
65162;SDS011;51751;55.714;37.436;2023-05-10T08:15:28;4.97;;;2.08;;
65162;SDS011;51751;55.714;37.436;2023-05-10T08:17:54;8.15;;;2.13;;
65162;SDS011;51751;55.714;37.436;2023-05-10T08:20:20;6.22;;;2.00;;
65162;SDS011;51751;55.714;37.436;2023-05-10T08:22:46;5.97;;;1.75;;
65162;SDS011;51751;55.714;37.436;2023-05-10T08:25:12;8.50;;;1.83;;
65162;SDS011;51751;55.714;37.436;2023-05-10T08:27:38;3.53;;;1.52;;
65162;SDS011;51751;55.714;37.436;2023-05-10T08:30:04;5.70;;;1.77;;
65162;SDS011;51751;55.714;37.436;2023-05-10T08:32:35;2.78;;;1.55;;
65162;SDS011;51751;55.714;37.436;2023-05-10T08:35:03;7.00;;;2.10;;
65162;SDS011;51751;55.714;37.436;2023-05-10T08:37:31;7.38;;;1.98;;
65162;SDS011;51751;55.714;37.436;2023-05-10T08:39:57;2.53;;;1.58;;
65162;SDS011;51751;55.714;37.436;2023-05-10T08:42:23;2.75;;;1.63;;
65162;SDS011;51751;55.714;37.436;2023-05-10T08:44:51;4.53;;;1.98;;
65162;SDS011;51751;55.714;37.436;2023-05-10T08:47:18;5.43;;;2.00;;
65162;SDS011;51751;55.714;37.436;2023-05-10T08:49:44;2.90;;;1.92;;
65162;SDS011;51751;55.714;37.436;2023-05-10T08:52:14;2.38;;;1.80;;
65162;SDS011;51751;55.714;37.436;2023-05-10T08:54:40;3.28;;;1.75;;
65162;SDS011;51751;55.714;37.436;2023-05-10T08:57:06;4.85;;;1.90;;
65162;SDS011;51751;55.714;37.436;2023-05-10T08:59:33;4.43;;;2.17;;
65162;SDS011;51751;55.714;37.436;2023-05-10T09:02:05;16.55;;;2.72;;
65162;SDS011;51751;55.714;37.436;2023-05-10T09:04:31;9.20;;;1.98;;
65162;SDS011;51751;55.714;37.436;2023-05-10T09:06:57;7.38;;;1.58;;
65162;SDS011;51751;55.714;37.436;2023-05-10T09:09:23;3.00;;;1.80;;
65162;SDS011;51751;55.714;37.436;2023-05-10T09:11:49;5.78;;;1.40;;
65162;SDS011;51751;55.714;37.436;2023-05-10T09:14:15;4.60;;;1.35;;
65162;SDS011;51751;55.714;37.436;2023-05-10T09:16:42;2.08;;;1.30;;
65162;SDS011;51751;55.714;37.436;2023-05-10T09:19:08;2.38;;;1.50;;
65162;SDS011;51751;55.714;37.436;2023-05-10T09:21:35;3.63;;;1.95;;
65162;SDS011;51751;55.714;37.436;2023-05-10T09:24:07;3.67;;;1.30;;
65162;SDS011;51751;55.714;37.436;2023-05-10T09:26:34;3.60;;;1.30;;
65162;SDS011;51751;55.714;37.436;2023-05-10T09:29:01;2.15;;;1.25;;
65162;SDS011;51751;55.714;37.436;2023-05-10T09:34:15;1.50;;;1.10;;
65162;SDS011;51751;55.714;37.436;2023-05-10T09:36:55;2.20;;;1.27;;
65162;SDS011;51751;55.714;37.436;2023-05-10T09:39:32;2.05;;;1.80;;
65162;SDS011;51751;55.714;37.436;2023-05-10T09:42:17;1.67;;;1.30;;
65162;SDS011;51751;55.714;37.436;2023-05-10T09:44:43;2.65;;;1.20;;
65162;SDS011;51751;55.714;37.436;2023-05-10T09:47:11;3.50;;;1.50;;
65162;SDS011;51751;55.714;37.436;2023-05-10T09:49:43;2.38;;;1.30;;
65162;SDS011;51751;55.714;37.436;2023-05-10T09:52:09;1.52;;;1.33;;
65162;SDS011;51751;55.714;37.436;2023-05-10T09:54:34;3.85;;;1.60;;
65162;SDS011;51751;55.714;37.436;2023-05-10T09:57:02;3.88;;;1.40;;
65162;SDS011;51751;55.714;37.436;2023-05-10T09:59:28;6.30;;;1.73;;
65162;SDS011;51751;55.714;37.436;2023-05-10T10:01:58;2.75;;;1.60;;
65162;SDS011;51751;55.714;37.436;2023-05-10T10:04:25;4.20;;;1.55;;
65162;SDS011;51751;55.714;37.436;2023-05-10T10:07:04;3.28;;;1.63;;
65162;SDS011;51751;55.714;37.436;2023-05-10T10:09:31;5.22;;;1.60;;
65162;SDS011;51751;55.714;37.436;2023-05-10T10:11:57;2.92;;;1.60;;
65162;SDS011;51751;55.714;37.436;2023-05-10T10:14:24;4.13;;;1.70;;
65162;SDS011;51751;55.714;37.436;2023-05-10T10:16:50;2.60;;;1.77;;
65162;SDS011;51751;55.714;37.436;2023-05-10T10:19:17;4.63;;;1.70;;
65162;SDS011;51751;55.714;37.436;2023-05-10T10:21:44;6.13;;;1.98;;
65162;SDS011;51751;55.714;37.436;2023-05-10T10:24:10;7.00;;;1.70;;
65162;SDS011;51751;55.714;37.436;2023-05-10T10:26:36;2.25;;;1.60;;
65162;SDS011;51751;55.714;37.436;2023-05-10T10:34:36;3.30;;;1.73;;
65162;SDS011;51751;55.714;37.436;2023-05-10T10:37:05;5.57;;;2.30;;
65162;SDS011;51751;55.714;37.436;2023-05-10T10:39:32;5.57;;;2.20;;
65162;SDS011;51751;55.714;37.436;2023-05-10T10:41:58;3.30;;;1.70;;
65162;SDS011;51751;55.714;37.436;2023-05-10T10:44:26;4.80;;;1.80;;
65162;SDS011;51751;55.714;37.436;2023-05-10T10:47:02;5.13;;;1.70;;
65162;SDS011;51751;55.714;37.436;2023-05-10T10:50:06;8.55;;;1.95;;
65162;SDS011;51751;55.714;37.436;2023-05-10T11:05:35;2.63;;;1.70;;
65162;SDS011;51751;55.714;37.436;2023-05-10T11:08:09;3.17;;;2.03;;
65162;SDS011;51751;55.714;37.436;2023-05-10T11:10:38;3.05;;;2.03;;
65162;SDS011;51751;55.714;37.436;2023-05-10T11:13:05;3.40;;;1.90;;
65162;SDS011;51751;55.714;37.436;2023-05-10T11:15:33;7.82;;;1.70;;
65162;SDS011;51751;55.714;37.436;2023-05-10T11:18:25;5.93;;;1.90;;
65162;SDS011;51751;55.714;37.436;2023-05-10T11:20:52;4.55;;;2.10;;
65162;SDS011;51751;55.714;37.436;2023-05-10T11:23:22;4.60;;;2.05;;
65162;SDS011;51751;55.714;37.436;2023-05-10T11:25:48;5.68;;;2.03;;
65162;SDS011;51751;55.714;37.436;2023-05-10T11:28:18;5.97;;;1.80;;
65162;SDS011;51751;55.714;37.436;2023-05-10T11:30:45;9.30;;;2.20;;
65162;SDS011;51751;55.714;37.436;2023-05-10T11:33:15;9.73;;;2.22;;
65162;SDS011;51751;55.714;37.436;2023-05-10T11:36:03;10.02;;;2.10;;
65162;SDS011;51751;55.714;37.436;2023-05-10T11:38:29;3.42;;;2.00;;
65162;SDS011;51751;55.714;37.436;2023-05-10T11:40:58;3.20;;;2.00;;
65162;SDS011;51751;55.714;37.436;2023-05-10T11:43:24;3.92;;;2.15;;
65162;SDS011;51751;55.714;37.436;2023-05-10T11:45:54;10.07;;;2.22;;
65162;SDS011;51751;55.714;37.436;2023-05-10T11:48:20;3.75;;;1.90;;
65162;SDS011;51751;55.714;37.436;2023-05-10T11:50:49;13.50;;;2.47;;
65162;SDS011;51751;55.714;37.436;2023-05-10T11:53:34;6.23;;;2.00;;
65162;SDS011;51751;55.714;37.436;2023-05-10T11:56:05;8.40;;;1.90;;
65162;SDS011;51751;55.714;37.436;2023-05-10T11:58:35;14.43;;;2.10;;
65162;SDS011;51751;55.714;37.436;2023-05-10T12:01:02;5.85;;;2.03;;
65162;SDS011;51751;55.714;37.436;2023-05-10T12:03:29;6.05;;;2.00;;
65162;SDS011;51751;55.714;37.436;2023-05-10T12:05:55;3.92;;;1.80;;
65162;SDS011;51751;55.714;37.436;2023-05-10T12:08:23;5.55;;;2.00;;
65162;SDS011;51751;55.714;37.436;2023-05-10T12:10:50;4.05;;;2.15;;
65162;SDS011;51751;55.714;37.436;2023-05-10T12:13:17;7.20;;;1.80;;
65162;SDS011;51751;55.714;37.436;2023-05-10T12:15:44;5.65;;;1.70;;
65162;SDS011;51751;55.714;37.436;2023-05-10T12:18:10;5.22;;;2.13;;
65162;SDS011;51751;55.714;37.436;2023-05-10T12:20:37;4.68;;;2.10;;
65162;SDS011;51751;55.714;37.436;2023-05-10T12:23:04;5.35;;;2.00;;
65162;SDS011;51751;55.714;37.436;2023-05-10T12:25:34;8.50;;;1.90;;
65162;SDS011;51751;55.714;37.436;2023-05-10T12:28:05;2.95;;;1.73;;
65162;SDS011;51751;55.714;37.436;2023-05-10T12:30:33;3.67;;;1.90;;
65162;SDS011;51751;55.714;37.436;2023-05-10T12:33:01;4.53;;;1.65;;
65162;SDS011;51751;55.714;37.436;2023-05-10T12:35:33;10.30;;;1.90;;
65162;SDS011;51751;55.714;37.436;2023-05-10T12:40:47;3.35;;;1.70;;
65162;SDS011;51751;55.714;37.436;2023-05-10T12:43:13;5.85;;;1.60;;
65162;SDS011;51751;55.714;37.436;2023-05-10T12:45:39;2.08;;;1.65;;
65162;SDS011;51751;55.714;37.436;2023-05-10T12:48:05;4.72;;;1.98;;
65162;SDS011;51751;55.714;37.436;2023-05-10T12:50:49;2.47;;;1.80;;
65162;SDS011;51751;55.714;37.436;2023-05-10T12:53:16;7.90;;;1.60;;
65162;SDS011;51751;55.714;37.436;2023-05-10T12:55:42;5.03;;;1.77;;
65162;SDS011;51751;55.714;37.436;2023-05-10T12:58:08;2.42;;;1.73;;
65162;SDS011;51751;55.714;37.436;2023-05-10T13:00:34;3.10;;;1.70;;
65162;SDS011;51751;55.714;37.436;2023-05-10T13:03:00;6.18;;;2.20;;
65162;SDS011;51751;55.714;37.436;2023-05-10T13:05:26;6.75;;;2.40;;
65162;SDS011;51751;55.714;37.436;2023-05-10T13:07:52;3.90;;;1.83;;
65162;SDS011;51751;55.714;37.436;2023-05-10T13:10:18;5.78;;;1.80;;
65162;SDS011;51751;55.714;37.436;2023-05-10T13:12:44;4.50;;;1.70;;
65162;SDS011;51751;55.714;37.436;2023-05-10T13:15:10;4.50;;;1.83;;
65162;SDS011;51751;55.714;37.436;2023-05-10T13:17:36;3.65;;;1.90;;
65162;SDS011;51751;55.714;37.436;2023-05-10T13:20:04;5.78;;;2.00;;
65162;SDS011;51751;55.714;37.436;2023-05-10T13:22:31;2.25;;;1.75;;
65162;SDS011;51751;55.714;37.436;2023-05-10T13:24:57;3.80;;;1.80;;
65162;SDS011;51751;55.714;37.436;2023-05-10T13:27:23;2.80;;;1.70;;
65162;SDS011;51751;55.714;37.436;2023-05-10T13:29:48;7.50;;;1.80;;
65162;SDS011;51751;55.714;37.436;2023-05-10T13:32:14;4.45;;;1.63;;
65162;SDS011;51751;55.714;37.436;2023-05-10T13:34:40;4.55;;;1.80;;
65162;SDS011;51751;55.714;37.436;2023-05-10T13:37:24;5.07;;;1.70;;
65162;SDS011;51751;55.714;37.436;2023-05-10T13:39:50;3.40;;;1.52;;
65162;SDS011;51751;55.714;37.436;2023-05-10T13:42:17;5.47;;;1.70;;
65162;SDS011;51751;55.714;37.436;2023-05-10T13:44:43;4.68;;;1.70;;
65162;SDS011;51751;55.714;37.436;2023-05-10T13:47:09;7.25;;;1.95;;
65162;SDS011;51751;55.714;37.436;2023-05-10T13:49:36;6.45;;;1.88;;
65162;SDS011;51751;55.714;37.436;2023-05-10T13:52:02;5.28;;;1.80;;
65162;SDS011;51751;55.714;37.436;2023-05-10T13:54:41;9.30;;;1.70;;
65162;SDS011;51751;55.714;37.436;2023-05-10T13:57:06;6.63;;;2.00;;
65162;SDS011;51751;55.714;37.436;2023-05-10T13:59:33;6.75;;;2.10;;
65162;SDS011;51751;55.714;37.436;2023-05-10T14:01:59;3.50;;;1.73;;
65162;SDS011;51751;55.714;37.436;2023-05-10T14:04:28;4.90;;;2.50;;
65162;SDS011;51751;55.714;37.436;2023-05-10T14:06:54;6.32;;;1.90;;
65162;SDS011;51751;55.714;37.436;2023-05-10T14:09:21;4.22;;;1.85;;
65162;SDS011;51751;55.714;37.436;2023-05-10T14:11:47;4.78;;;1.70;;
65162;SDS011;51751;55.714;37.436;2023-05-10T14:14:13;7.50;;;2.00;;
65162;SDS011;51751;55.714;37.436;2023-05-10T14:16:43;6.40;;;1.83;;
65162;SDS011;51751;55.714;37.436;2023-05-10T14:19:10;3.25;;;1.80;;
65162;SDS011;51751;55.714;37.436;2023-05-10T14:21:36;4.63;;;1.80;;
65162;SDS011;51751;55.714;37.436;2023-05-10T14:24:02;5.82;;;1.75;;
65162;SDS011;51751;55.714;37.436;2023-05-10T14:26:28;6.35;;;1.70;;
65162;SDS011;51751;55.714;37.436;2023-05-10T14:29:12;2.15;;;1.55;;
65162;SDS011;51751;55.714;37.436;2023-05-10T14:31:39;5.88;;;1.70;;
65162;SDS011;51751;55.714;37.436;2023-05-10T14:34:05;3.95;;;1.73;;
65162;SDS011;51751;55.714;37.436;2023-05-10T14:36:32;5.90;;;1.80;;
65162;SDS011;51751;55.714;37.436;2023-05-10T14:38:57;2.72;;;1.95;;
65162;SDS011;51751;55.714;37.436;2023-05-10T14:41:42;24.38;;;3.60;;
65162;SDS011;51751;55.714;37.436;2023-05-10T14:44:10;3.97;;;2.20;;
65162;SDS011;51751;55.714;37.436;2023-05-10T14:46:35;5.22;;;1.98;;
65162;SDS011;51751;55.714;37.436;2023-05-10T14:49:04;8.27;;;1.85;;
65162;SDS011;51751;55.714;37.436;2023-05-10T14:51:30;6.75;;;2.13;;
65162;SDS011;51751;55.714;37.436;2023-05-10T14:53:59;8.15;;;1.92;;
65162;SDS011;51751;55.714;37.436;2023-05-10T14:56:25;3.88;;;1.80;;
65162;SDS011;51751;55.714;37.436;2023-05-10T14:58:51;6.20;;;1.92;;
65162;SDS011;51751;55.714;37.436;2023-05-10T15:01:17;10.30;;;2.10;;
65162;SDS011;51751;55.714;37.436;2023-05-10T15:04:01;3.10;;;1.60;;
65162;SDS011;51751;55.714;37.436;2023-05-10T15:06:31;3.25;;;1.80;;
65162;SDS011;51751;55.714;37.436;2023-05-10T15:08:58;2.78;;;1.60;;
65162;SDS011;51751;55.714;37.436;2023-05-10T15:11:23;5.00;;;1.60;;
65162;SDS011;51751;55.714;37.436;2023-05-10T15:13:49;4.03;;;2.08;;
65162;SDS011;51751;55.714;37.436;2023-05-10T15:16:15;3.85;;;1.60;;
65162;SDS011;51751;55.714;37.436;2023-05-10T15:18:41;5.53;;;2.00;;